createdAt,value
2022-09-30T00:01:30.552Z,24.70
2022-09-30T00:03:59.353Z,24.70
2022-09-30T00:06:27.736Z,24.80
2022-09-30T00:08:56.423Z,24.80
2022-09-30T00:11:26.995Z,24.80
2022-09-30T00:13:55.942Z,24.80
2022-09-30T00:16:25.153Z,24.80
2022-09-30T00:18:55.743Z,24.80
2022-09-30T00:21:24.842Z,24.80
2022-09-30T00:23:52.455Z,24.80
2022-09-30T00:26:21.783Z,24.80
2022-09-30T00:29:07.889Z,24.80
2022-09-30T00:31:36.119Z,24.80
2022-09-30T00:34:12.524Z,24.80
2022-09-30T00:36:44.885Z,24.80
2022-09-30T00:39:15.009Z,24.80
2022-09-30T00:41:43.547Z,24.80
2022-09-30T00:44:23.434Z,24.80
2022-09-30T00:46:51.282Z,24.80
2022-09-30T00:49:21.466Z,24.90
2022-09-30T00:51:52.309Z,24.90
2022-09-30T00:54:22.083Z,24.90
2022-09-30T00:56:57.616Z,24.90
2022-09-30T00:59:28.686Z,24.90
2022-09-30T01:01:56.800Z,24.90
2022-09-30T01:04:25.987Z,24.90
2022-09-30T01:06:54.399Z,24.90
2022-09-30T01:09:22.258Z,24.90
2022-09-30T01:11:50.122Z,25.00
2022-09-30T01:14:22.554Z,25.00
2022-09-30T01:17:02.416Z,25.00
2022-09-30T01:20:07.551Z,25.00
2022-09-30T01:22:54.809Z,25.00
2022-09-30T01:25:40.025Z,25.00
2022-09-30T01:28:27.557Z,25.00
2022-09-30T01:31:07.600Z,25.10
2022-09-30T01:33:45.257Z,25.10
2022-09-30T01:36:25.844Z,25.10
2022-09-30T01:39:04.021Z,25.10
2022-09-30T01:41:53.624Z,25.10
2022-09-30T01:44:31.607Z,25.10
2022-09-30T01:47:14.270Z,25.20
2022-09-30T01:49:49.824Z,25.20
2022-09-30T01:52:31.095Z,25.20
2022-09-30T01:55:09.675Z,25.20
2022-09-30T01:57:57.133Z,25.20
2022-09-30T02:00:25.656Z,25.20
2022-09-30T02:02:55.961Z,25.20
2022-09-30T02:05:34.450Z,25.20
2022-09-30T02:08:05.615Z,25.30
2022-09-30T02:10:41.467Z,25.30
2022-09-30T02:13:11.403Z,25.30
2022-09-30T02:15:41.537Z,25.30
2022-09-30T02:18:14.144Z,25.40
2022-09-30T02:20:45.300Z,25.40
2022-09-30T02:23:16.552Z,25.40
2022-09-30T02:25:47.041Z,25.40
2022-09-30T02:28:19.440Z,25.40
2022-09-30T02:30:50.067Z,25.50
2022-09-30T02:33:24.087Z,25.50
2022-09-30T02:35:57.804Z,25.60
2022-09-30T02:38:27.598Z,25.60
2022-09-30T02:41:15.419Z,25.60
2022-09-30T02:43:44.101Z,25.60
2022-09-30T02:46:19.480Z,25.70
2022-09-30T02:48:53.225Z,25.70
2022-09-30T02:51:28.143Z,25.80
2022-09-30T02:54:15.266Z,25.80
2022-09-30T02:56:58.080Z,25.80
2022-09-30T02:59:26.883Z,25.90
2022-09-30T03:01:56.551Z,25.90
2022-09-30T03:04:25.894Z,26.00
2022-09-30T03:06:54.536Z,26.00
2022-09-30T03:09:26.664Z,26.10
2022-09-30T03:12:06.089Z,26.10
2022-09-30T03:14:45.948Z,26.10
2022-09-30T03:17:25.822Z,26.10
2022-09-30T03:20:13.851Z,26.10
2022-09-30T03:22:55.690Z,26.20
2022-09-30T03:25:36.381Z,26.20
2022-09-30T03:28:24.204Z,26.20
2022-09-30T03:31:11.456Z,26.20
2022-09-30T03:34:00.668Z,26.30
2022-09-30T03:36:35.111Z,26.30
2022-09-30T03:39:07.605Z,26.30
2022-09-30T03:41:50.504Z,26.80
2022-09-30T03:44:37.794Z,26.40
2022-09-30T03:47:08.629Z,26.50
2022-09-30T03:49:39.518Z,26.50
2022-09-30T03:52:08.490Z,26.50
2022-09-30T03:54:45.416Z,26.50
2022-09-30T03:57:15.926Z,26.50
2022-09-30T03:59:44.956Z,26.50
2022-09-30T04:02:15.473Z,26.50
2022-09-30T04:04:44.207Z,26.50
2022-09-30T04:07:12.161Z,26.60
2022-09-30T04:09:40.081Z,26.60
2022-09-30T04:12:11.500Z,26.60
2022-09-30T04:14:45.198Z,26.70
2022-09-30T04:17:12.733Z,26.80
2022-09-30T04:19:40.549Z,26.90
2022-09-30T04:22:08.802Z,27.00
2022-09-30T04:24:36.509Z,27.10
2022-09-30T04:27:04.137Z,27.10
2022-09-30T04:29:32.047Z,27.10
2022-09-30T04:31:59.615Z,27.10
2022-09-30T04:34:27.165Z,27.10
2022-09-30T04:36:55.525Z,27.10
2022-09-30T04:39:23.256Z,27.10
2022-09-30T04:41:52.710Z,27.10
2022-09-30T04:44:21.291Z,27.10
2022-09-30T04:47:06.454Z,27.10
2022-09-30T04:49:34.207Z,27.10
2022-09-30T04:52:05.491Z,27.00
2022-09-30T04:54:34.064Z,27.10
2022-09-30T04:57:03.026Z,27.20
2022-09-30T04:59:32.273Z,27.20
2022-09-30T05:02:00.151Z,27.10
2022-09-30T05:04:29.303Z,27.20
2022-09-30T05:06:56.899Z,27.10
2022-09-30T05:09:25.672Z,27.10
2022-09-30T05:11:58.610Z,27.00
2022-09-30T05:14:26.426Z,27.00
2022-09-30T05:16:54.018Z,27.00
2022-09-30T05:19:22.630Z,27.00
2022-09-30T05:21:50.308Z,27.10
2022-09-30T05:24:20.842Z,27.10
2022-09-30T05:26:49.377Z,27.10
2022-09-30T05:29:16.943Z,27.10
2022-09-30T05:31:44.583Z,27.20
2022-09-30T05:34:12.342Z,27.20
2022-09-30T05:36:40.723Z,27.20
2022-09-30T05:39:08.256Z,27.30
2022-09-30T05:41:35.893Z,27.30
2022-09-30T05:44:03.591Z,27.30
2022-09-30T05:46:34.132Z,27.30
2022-09-30T05:49:01.950Z,27.30
2022-09-30T05:51:30.346Z,27.30
2022-09-30T05:53:58.295Z,27.30
2022-09-30T05:56:26.019Z,27.40
2022-09-30T05:58:53.796Z,27.40
2022-09-30T06:01:21.649Z,27.50
2022-09-30T06:03:49.355Z,27.60
2022-09-30T06:06:17.264Z,27.70
2022-09-30T06:08:45.026Z,27.70
2022-09-30T06:11:13.793Z,27.70
2022-09-30T06:13:42.206Z,27.70
2022-09-30T06:16:10.539Z,27.60
2022-09-30T06:18:41.536Z,27.50
2022-09-30T06:21:11.630Z,27.40
2022-09-30T06:23:39.624Z,27.40
2022-09-30T06:26:08.680Z,27.30
2022-09-30T06:28:36.271Z,27.30
2022-09-30T06:31:04.517Z,27.20
2022-09-30T06:33:32.495Z,27.20
2022-09-30T06:36:04.536Z,27.30
2022-09-30T06:38:33.044Z,27.30
2022-09-30T06:41:00.953Z,27.40
2022-09-30T06:43:28.795Z,27.50
2022-09-30T06:46:09.723Z,27.60
2022-09-30T06:48:44.321Z,27.70
2022-09-30T06:51:12.844Z,27.80
2022-09-30T06:53:40.543Z,27.90
2022-09-30T06:56:08.531Z,28.00
2022-09-30T06:58:36.092Z,28.00
2022-09-30T07:01:08.101Z,28.00
2022-09-30T07:03:38.207Z,28.00
2022-09-30T07:06:08.228Z,28.00
2022-09-30T07:08:37.486Z,27.90
2022-09-30T07:11:08.057Z,27.80
2022-09-30T07:13:35.605Z,27.60
2022-09-30T07:16:03.231Z,27.50
2022-09-30T07:18:31.151Z,27.40
2022-09-30T07:20:58.674Z,27.20
2022-09-30T07:23:29.247Z,27.10
2022-09-30T07:25:57.709Z,27.10
2022-09-30T07:28:31.673Z,27.00
2022-09-30T07:31:27.497Z,27.00
2022-09-30T07:33:48.570Z,27.00
2022-09-30T07:36:19.603Z,27.00
2022-09-30T07:38:52.101Z,27.10
2022-09-30T07:41:27.257Z,27.10
2022-09-30T07:43:58.010Z,27.20
2022-09-30T07:46:31.707Z,27.20
2022-09-30T07:49:04.337Z,27.30
2022-09-30T07:51:39.112Z,27.30
2022-09-30T07:54:30.404Z,27.40
2022-09-30T07:57:11.697Z,27.40
2022-09-30T07:59:41.391Z,27.50
2022-09-30T08:02:15.327Z,27.60
2022-09-30T08:04:45.363Z,27.60
2022-09-30T08:07:14.717Z,27.70
2022-09-30T08:09:42.633Z,27.70
2022-09-30T08:12:10.775Z,27.80
2022-09-30T08:14:38.659Z,27.80
2022-09-30T08:17:06.598Z,27.90
2022-09-30T08:19:34.315Z,28.00
2022-09-30T08:24:30.850Z,28.00
2022-09-30T08:26:58.813Z,28.00
2022-09-30T08:32:28.933Z,27.90
2022-09-30T08:34:56.540Z,27.80
2022-09-30T08:37:25.202Z,27.70
2022-09-30T08:39:52.806Z,27.60
2022-09-30T08:42:41.281Z,27.50
2022-09-30T08:45:18.033Z,27.50
2022-09-30T08:48:05.331Z,27.40
2022-09-30T08:50:52.622Z,27.40
2022-09-30T08:53:28.512Z,27.40
2022-09-30T08:55:58.287Z,27.40
2022-09-30T08:58:48.219Z,27.40
2022-09-30T09:01:38.488Z,27.40
2022-09-30T09:04:07.122Z,27.40
2022-09-30T09:06:55.468Z,27.40
2022-09-30T09:09:44.154Z,27.40
2022-09-30T09:12:24.621Z,27.40
2022-09-30T09:15:12.609Z,27.40
2022-09-30T09:18:18.319Z,27.40
2022-09-30T09:20:44.022Z,27.50
2022-09-30T09:23:13.123Z,27.50
2022-09-30T09:25:40.949Z,27.60
2022-09-30T09:28:26.412Z,27.60
2022-09-30T09:30:57.873Z,27.60
2022-09-30T09:33:29.836Z,27.60
2022-09-30T09:36:04.494Z,27.70
2022-09-30T09:38:51.746Z,27.60
2022-09-30T09:41:39.451Z,27.60
2022-09-30T09:44:16.166Z,27.60
2022-09-30T09:47:05.444Z,27.60
2022-09-30T09:49:40.071Z,27.60
2022-09-30T09:52:28.986Z,27.60
2022-09-30T09:54:57.116Z,27.60
2022-09-30T09:57:28.052Z,27.60
2022-09-30T10:00:27.456Z,27.60
2022-09-30T10:03:06.939Z,27.50
2022-09-30T10:05:41.481Z,27.50
2022-09-30T10:08:21.674Z,27.50
2022-09-30T10:10:59.313Z,27.50
2022-09-30T10:13:28.180Z,27.50
2022-09-30T10:15:57.714Z,27.40
2022-09-30T10:18:37.467Z,27.40
2022-09-30T10:21:38.359Z,27.40
2022-09-30T10:24:25.608Z,27.40
2022-09-30T10:26:53.186Z,27.30
2022-09-30T10:29:33.026Z,27.30
2022-09-30T10:32:02.772Z,27.30
2022-09-30T10:34:32.066Z,27.30
2022-09-30T10:37:01.621Z,27.20
2022-09-30T10:39:47.618Z,27.20
2022-09-30T10:42:26.271Z,27.20
2022-09-30T10:44:56.498Z,27.10
2022-09-30T10:47:30.236Z,27.10
2022-09-30T10:50:07.331Z,27.10
2022-09-30T10:52:38.854Z,27.10
2022-09-30T10:55:13.261Z,27.10
2022-09-30T10:57:44.560Z,27.10
2022-09-30T11:00:17.698Z,27.00
2022-09-30T11:02:50.605Z,27.00
2022-09-30T11:05:23.120Z,27.00
2022-09-30T11:08:11.317Z,26.90
2022-09-30T11:10:51.032Z,26.90
2022-09-30T11:13:30.779Z,26.90
2022-09-30T11:16:05.953Z,26.80
2022-09-30T11:18:45.818Z,26.80
2022-09-30T11:21:16.201Z,26.80
2022-09-30T11:23:46.624Z,26.70
2022-09-30T11:26:22.313Z,26.60
2022-09-30T11:29:09.485Z,26.60
2022-09-30T11:31:39.956Z,26.60
2022-09-30T11:34:19.748Z,26.50
2022-09-30T11:37:06.862Z,26.50
2022-09-30T11:39:46.893Z,26.50
2022-09-30T11:42:33.949Z,26.50
2022-09-30T11:48:22.713Z,26.40
2022-09-30T11:51:02.169Z,26.40
2022-09-30T11:53:44.133Z,26.40
2022-09-30T11:59:31.794Z,26.30
2022-09-30T12:02:02.181Z,26.30
2022-09-30T12:04:36.469Z,26.30
2022-09-30T12:09:59.754Z,26.30
2022-09-30T12:12:32.346Z,26.30
2022-09-30T12:15:02.531Z,26.20
2022-09-30T12:17:42.300Z,26.20
2022-09-30T12:23:29.140Z,26.20
2022-09-30T12:25:58.650Z,26.20
2022-09-30T12:34:49.041Z,26.10
2022-09-30T12:37:28.842Z,26.10
2022-09-30T12:40:29.528Z,26.00
2022-09-30T12:43:21.035Z,26.00
2022-09-30T12:46:03.332Z,25.90
2022-09-30T12:54:27.580Z,25.90
2022-09-30T13:00:06.790Z,25.80
2022-09-30T13:02:42.418Z,25.80
2022-09-30T13:11:36.971Z,25.80
2022-09-30T13:14:21.191Z,25.80
2022-09-30T13:17:09.373Z,25.70
2022-09-30T13:19:47.862Z,25.70
2022-09-30T13:22:39.943Z,25.70
2022-09-30T13:25:16.044Z,25.70
2022-09-30T13:27:51.270Z,25.70
2022-09-30T13:30:37.424Z,25.70
2022-09-30T13:33:09.414Z,25.70
2022-09-30T13:35:55.773Z,25.70
2022-09-30T13:38:40.027Z,25.70
2022-09-30T13:41:24.162Z,25.70
2022-09-30T13:44:04.834Z,25.70
2022-09-30T13:46:50.482Z,25.80
2022-09-30T13:49:31.333Z,25.80
2022-09-30T13:51:59.494Z,25.70
2022-09-30T13:54:37.004Z,25.80
2022-09-30T13:57:10.994Z,25.70
2022-09-30T13:59:46.261Z,25.80
2022-09-30T14:05:32.808Z,25.70
2022-09-30T14:08:14.262Z,25.70
2022-09-30T14:11:01.751Z,25.70
2022-09-30T14:13:44.216Z,25.70
2022-09-30T14:16:38.772Z,25.70
2022-09-30T14:19:26.300Z,25.70
2022-09-30T14:21:58.446Z,25.70
2022-09-30T14:30:27.501Z,25.70
2022-09-30T14:33:15.501Z,25.70
2022-09-30T14:35:47.776Z,25.70
2022-09-30T14:38:20.789Z,25.70
2022-09-30T14:40:54.759Z,25.70
2022-09-30T14:43:26.762Z,25.70
2022-09-30T14:45:58.761Z,25.70
2022-09-30T14:48:29.684Z,25.70
2022-09-30T14:51:20.148Z,25.60
2022-09-30T14:53:55.977Z,25.60
2022-09-30T14:56:36.693Z,25.70
2022-09-30T14:59:27.891Z,25.70
2022-09-30T15:02:04.212Z,25.70
2022-09-30T15:04:34.107Z,25.70
2022-09-30T15:07:03.752Z,25.70
2022-09-30T15:09:39.621Z,25.70
2022-09-30T15:12:18.370Z,25.60
2022-09-30T15:14:47.392Z,25.60
2022-09-30T15:17:19.843Z,25.60
2022-09-30T15:19:47.715Z,25.60
2022-09-30T15:22:15.638Z,25.60
2022-09-30T15:24:44.603Z,25.60
2022-09-30T15:27:20.072Z,25.60
2022-09-30T15:29:55.433Z,25.60
2022-09-30T15:32:24.508Z,25.60
2022-09-30T15:34:52.592Z,25.60
2022-09-30T15:37:22.817Z,25.60
2022-09-30T15:40:03.768Z,25.60
2022-09-30T15:42:37.040Z,25.60
2022-09-30T15:45:25.172Z,25.60
2022-09-30T15:47:58.329Z,25.60
2022-09-30T15:50:42.942Z,25.60
2022-09-30T15:53:25.187Z,25.60
2022-09-30T15:56:05.514Z,25.50
2022-09-30T15:58:41.866Z,25.50
2022-09-30T16:01:22.361Z,25.50
2022-09-30T16:03:59.159Z,25.50
2022-09-30T16:06:38.860Z,25.50
2022-09-30T16:09:09.741Z,25.50
2022-09-30T16:11:42.231Z,25.50
2022-09-30T16:14:13.612Z,25.40
2022-09-30T16:16:42.783Z,25.40
2022-09-30T16:19:16.420Z,25.40
2022-09-30T16:21:54.938Z,25.40
2022-09-30T16:24:44.332Z,25.40
2022-09-30T16:27:30.650Z,25.40
2022-09-30T16:29:58.654Z,25.40
2022-09-30T16:32:26.525Z,25.40
2022-09-30T16:34:54.172Z,25.30
2022-09-30T16:37:21.846Z,25.30
2022-09-30T16:39:51.570Z,25.30
2022-09-30T16:42:20.564Z,25.30
2022-09-30T16:44:48.163Z,25.30
2022-09-30T16:47:16.883Z,25.30
2022-09-30T16:49:46.088Z,25.30
2022-09-30T16:52:15.023Z,25.30
2022-09-30T16:54:43.807Z,25.30
2022-09-30T16:57:13.765Z,25.30
2022-09-30T16:59:43.393Z,25.20
2022-09-30T17:02:14.831Z,25.20
2022-09-30T17:04:44.099Z,25.30
2022-09-30T17:07:12.319Z,25.20
2022-09-30T17:09:40.697Z,25.20
2022-09-30T17:12:08.235Z,25.30
2022-09-30T17:14:35.768Z,25.20
2022-09-30T17:17:03.253Z,25.20
2022-09-30T17:19:33.917Z,25.20
2022-09-30T17:22:03.395Z,25.20
2022-09-30T17:24:31.765Z,25.30
2022-09-30T17:26:59.395Z,25.20
2022-09-30T17:29:32.498Z,25.20
2022-09-30T17:32:00.585Z,25.20
2022-09-30T17:34:30.982Z,25.20
2022-09-30T17:37:00.961Z,25.20
2022-09-30T17:39:28.493Z,25.20
2022-09-30T17:42:09.135Z,25.20
2022-09-30T17:44:37.573Z,25.20
2022-09-30T17:47:05.466Z,25.20
2022-09-30T17:49:33.923Z,25.20
2022-09-30T17:52:02.739Z,25.20
2022-09-30T17:54:31.459Z,25.20
2022-09-30T17:56:59.988Z,25.20
2022-09-30T17:59:31.500Z,25.20
2022-09-30T18:01:59.292Z,25.20
2022-09-30T18:04:27.172Z,25.20
2022-09-30T18:06:55.006Z,25.20
2022-09-30T18:09:23.324Z,25.20
2022-09-30T18:11:51.811Z,25.20
2022-09-30T18:14:19.400Z,25.20
2022-09-30T18:16:47.827Z,25.20
2022-09-30T18:19:15.482Z,25.20
2022-09-30T18:21:43.140Z,25.20
2022-09-30T18:24:11.696Z,25.20
2022-09-30T18:26:39.161Z,25.20
2022-09-30T18:29:06.825Z,25.20
2022-09-30T18:31:39.382Z,25.20
2022-09-30T18:34:07.685Z,25.20
2022-09-30T18:36:37.554Z,25.20
2022-09-30T18:39:08.209Z,25.20
2022-09-30T18:41:38.800Z,25.20
2022-09-30T18:44:09.382Z,25.20
2022-09-30T18:46:38.494Z,25.20
2022-09-30T18:49:06.831Z,25.20
2022-09-30T18:51:35.343Z,25.20
2022-09-30T18:54:05.084Z,25.20
2022-09-30T18:56:36.793Z,25.20
2022-09-30T18:59:05.781Z,25.20
2022-09-30T19:01:34.819Z,25.20
2022-09-30T19:04:04.069Z,25.20
2022-09-30T19:06:32.200Z,25.20
2022-09-30T19:08:59.721Z,25.20
2022-09-30T19:11:30.538Z,25.20
2022-09-30T19:14:02.307Z,25.20
2022-09-30T19:16:36.722Z,25.20
2022-09-30T19:19:09.159Z,25.20
2022-09-30T19:21:37.673Z,25.20
2022-09-30T19:24:06.219Z,25.20
2022-09-30T19:26:36.457Z,25.20
2022-09-30T19:29:09.807Z,25.20
2022-09-30T19:31:38.354Z,25.20
2022-09-30T19:34:07.387Z,25.20
2022-09-30T19:36:48.988Z,25.20
2022-09-30T19:39:19.614Z,25.20
2022-09-30T19:41:47.559Z,25.20
2022-09-30T19:44:20.204Z,25.20
2022-09-30T19:46:51.425Z,25.20
2022-09-30T19:49:19.864Z,25.20
2022-09-30T19:51:49.914Z,25.20
2022-09-30T19:54:17.421Z,25.20
2022-09-30T19:56:45.028Z,25.20
2022-09-30T19:59:13.434Z,25.20
2022-09-30T20:01:41.850Z,25.20
2022-09-30T20:04:10.020Z,25.20
2022-09-30T20:06:37.544Z,25.20
2022-09-30T20:09:06.800Z,25.20
2022-09-30T20:11:36.390Z,25.20
2022-09-30T20:14:18.386Z,25.20
2022-09-30T20:16:50.505Z,25.20
2022-09-30T20:19:18.634Z,25.20
2022-09-30T20:21:46.787Z,25.20
2022-09-30T20:24:15.344Z,25.10
2022-09-30T20:26:43.816Z,25.20
2022-09-30T20:29:14.958Z,25.10
2022-09-30T20:31:43.400Z,25.20
2022-09-30T20:34:15.114Z,25.10
2022-09-30T20:36:43.838Z,25.10
2022-09-30T20:39:11.950Z,25.10
2022-09-30T20:41:43.722Z,25.10
2022-09-30T20:44:17.256Z,25.10
2022-09-30T20:46:45.552Z,25.10
2022-09-30T20:49:16.079Z,25.10
2022-09-30T20:51:44.481Z,25.10
2022-09-30T20:54:12.901Z,25.10
2022-09-30T20:57:05.913Z,25.10
2022-09-30T20:59:30.937Z,25.10
2022-09-30T21:01:59.295Z,25.10
2022-09-30T21:04:26.820Z,25.10
2022-09-30T21:06:54.355Z,25.20
2022-09-30T21:09:21.921Z,25.20
2022-09-30T21:11:49.540Z,25.20
2022-09-30T21:14:18.400Z,25.20
2022-09-30T21:16:46.840Z,25.20
2022-09-30T21:19:14.801Z,25.10
2022-09-30T21:21:43.293Z,25.10
2022-09-30T21:24:16.447Z,25.10
2022-09-30T21:26:44.798Z,25.10
2022-09-30T21:29:12.604Z,25.10
2022-09-30T21:31:40.257Z,25.10
2022-09-30T21:34:07.956Z,25.10
2022-09-30T21:36:35.521Z,25.10
2022-09-30T21:39:03.142Z,25.10
2022-09-30T21:41:33.864Z,25.10
2022-09-30T21:44:03.781Z,25.10
2022-09-30T21:46:31.260Z,25.10
2022-09-30T21:49:06.616Z,25.10
2022-09-30T21:51:36.067Z,25.10
2022-09-30T21:54:04.618Z,25.20
2022-09-30T21:56:33.142Z,25.20
2022-09-30T21:59:01.468Z,25.20
2022-09-30T22:01:30.708Z,25.20
2022-09-30T22:03:58.629Z,25.20
2022-09-30T22:06:26.212Z,25.20
2022-09-30T22:08:57.526Z,25.20
2022-09-30T22:11:25.751Z,25.20
2022-09-30T22:13:55.980Z,25.20
2022-09-30T22:16:28.061Z,25.20
2022-09-30T22:18:59.689Z,25.20
2022-09-30T22:21:32.886Z,25.20
2022-09-30T22:24:04.951Z,25.20
2022-09-30T22:26:33.943Z,25.20
2022-09-30T22:29:03.749Z,25.30
2022-09-30T22:31:33.007Z,25.20
2022-09-30T22:34:21.648Z,25.30
2022-09-30T22:37:01.555Z,25.20
2022-09-30T22:39:30.049Z,25.30
2022-09-30T22:41:58.337Z,25.20
2022-09-30T22:44:28.382Z,25.20
2022-09-30T22:47:01.203Z,25.30
2022-09-30T22:49:33.221Z,25.30
2022-09-30T22:52:02.250Z,25.30
2022-09-30T22:54:30.803Z,25.30
2022-09-30T22:56:59.604Z,25.30
2022-09-30T22:59:28.486Z,25.30
2022-09-30T23:01:58.540Z,25.30
2022-09-30T23:04:27.200Z,25.30
2022-09-30T23:06:56.472Z,25.30
2022-09-30T23:09:25.091Z,25.30
2022-09-30T23:11:54.353Z,25.30
2022-09-30T23:14:22.358Z,25.20
2022-09-30T23:16:50.239Z,25.30
2022-09-30T23:19:17.839Z,25.30
2022-09-30T23:21:45.444Z,25.30
2022-09-30T23:24:13.672Z,25.30
2022-09-30T23:26:41.225Z,25.30
2022-09-30T23:29:11.769Z,25.30
2022-09-30T23:31:39.753Z,25.30
2022-09-30T23:34:07.531Z,25.30
2022-09-30T23:36:36.876Z,25.30
2022-09-30T23:39:20.448Z,25.30
2022-09-30T23:41:49.605Z,25.30
2022-09-30T23:44:19.722Z,25.30
2022-09-30T23:47:00.124Z,25.30
2022-09-30T23:49:28.015Z,25.30
2022-09-30T23:51:55.558Z,25.40
2022-09-30T23:54:26.093Z,25.40
2022-09-30T23:56:53.798Z,25.40
2022-09-30T23:59:21.376Z,25.30
